createdAt,value
2022-12-13T00:01:56.001Z,97584.09
2022-12-13T00:04:25.329Z,97579.44
2022-12-13T00:06:54.111Z,97577.56
2022-12-13T00:09:21.602Z,97539.63
2022-12-13T00:11:49.438Z,97557.66
2022-12-13T00:14:19.545Z,97567.03
2022-12-13T00:16:49.119Z,97522.91
2022-12-13T00:19:17.000Z,97563.34
2022-12-13T00:21:43.968Z,97591.91
2022-12-13T00:24:10.773Z,97565.69
2022-12-13T00:26:37.434Z,97584.59
2022-12-13T00:29:07.185Z,97569.03
2022-12-13T00:34:21.215Z,97584.41
2022-12-13T00:36:48.528Z,97628.34
2022-12-13T00:39:16.726Z,97631.53
2022-12-13T00:41:44.980Z,97623.31
2022-12-13T00:44:12.919Z,97634.38
2022-12-13T00:46:40.997Z,97635.53
2022-12-13T00:49:07.809Z,97602.81
2022-12-13T00:51:35.003Z,97625.84
2022-12-13T00:54:02.523Z,97589.44
2022-12-13T00:56:31.969Z,97620.41
2022-12-13T00:58:59.043Z,97586.44
2022-12-13T01:01:29.645Z,97591.13
2022-12-13T01:03:58.946Z,97648.63
2022-12-13T01:06:34.464Z,97643.47
2022-12-13T01:09:02.261Z,97616.53
2022-12-13T01:11:29.123Z,97623.66
2022-12-13T01:13:55.734Z,97620.44
2022-12-13T01:16:22.436Z,97620.22
2022-12-13T01:18:50.245Z,97622.13
2022-12-13T01:21:20.824Z,97614.63
2022-12-13T01:23:49.121Z,97617.19
2022-12-13T01:26:18.463Z,97677.56
2022-12-13T01:28:45.306Z,97645.28
2022-12-13T01:31:16.412Z,97655.97
2022-12-13T01:33:43.338Z,97632.41
2022-12-13T01:36:14.250Z,97689.44
2022-12-13T01:38:41.309Z,97643.94
2022-12-13T01:41:09.012Z,97632.88
2022-12-13T01:43:44.523Z,97686.91
2022-12-13T01:46:12.365Z,97682.91
2022-12-13T01:48:57.713Z,97679.25
2022-12-13T01:51:39.847Z,97684.59
2022-12-13T01:54:11.294Z,97678.03
2022-12-13T01:56:45.249Z,97677.91
2022-12-13T01:59:17.056Z,97668.69
2022-12-13T02:01:44.064Z,97675.38
2022-12-13T02:04:10.713Z,97641.59
2022-12-13T02:06:42.098Z,97684.63
2022-12-13T02:09:10.664Z,97667.56
2022-12-13T02:11:41.027Z,97692.81
2022-12-13T02:14:09.916Z,97659.34
2022-12-13T02:16:43.450Z,97700.00
2022-12-13T02:19:40.744Z,97692.09
2022-12-13T02:22:19.641Z,97703.44
2022-12-13T02:25:13.496Z,97694.94
2022-12-13T02:27:47.008Z,97689.38
2022-12-13T02:30:36.919Z,97691.66
2022-12-13T02:33:06.717Z,97702.63
2022-12-13T02:36:01.532Z,97680.59
2022-12-13T02:38:50.058Z,97716.03
2022-12-13T02:41:21.017Z,97714.31
2022-12-13T02:44:01.038Z,97700.75
2022-12-13T02:46:32.849Z,97738.06
2022-12-13T02:49:00.958Z,97717.94
2022-12-13T02:51:28.980Z,97745.13
2022-12-13T02:53:55.929Z,97729.91
2022-12-13T02:56:22.925Z,97707.94
2022-12-13T02:58:53.429Z,97695.69
2022-12-13T03:01:40.834Z,97747.75
2022-12-13T03:04:26.603Z,97754.69
2022-12-13T03:07:04.644Z,97747.75
2022-12-13T03:09:37.474Z,97759.56
2022-12-13T03:12:31.667Z,97753.50
2022-12-13T03:15:12.554Z,97756.88
2022-12-13T03:18:15.684Z,97743.94
2022-12-13T03:20:51.352Z,97738.59
2022-12-13T03:23:19.903Z,97763.72
2022-12-13T03:25:49.288Z,97763.34
2022-12-13T03:28:16.025Z,97724.16
2022-12-13T03:30:42.856Z,97744.53
2022-12-13T03:33:09.485Z,97739.84
2022-12-13T03:35:44.346Z,97753.00
2022-12-13T03:38:22.654Z,97771.38
2022-12-13T03:40:53.695Z,97763.44
2022-12-13T03:43:22.292Z,97761.03
2022-12-13T03:45:50.415Z,97772.34
2022-12-13T03:48:21.958Z,97747.63
2022-12-13T03:50:50.888Z,97780.75
2022-12-13T03:53:22.338Z,97766.72
2022-12-13T03:56:00.963Z,97763.06
2022-12-13T03:58:36.524Z,97794.53
2022-12-13T04:01:16.232Z,97796.66
2022-12-13T04:03:44.609Z,97732.19
2022-12-13T04:06:12.347Z,97743.66
2022-12-13T04:08:39.952Z,97762.97
2022-12-13T04:11:26.330Z,97786.72
2022-12-13T04:13:54.452Z,97752.53
2022-12-13T04:16:21.913Z,97725.75
2022-12-13T04:18:48.685Z,97739.03
2022-12-13T04:21:15.822Z,97775.88
2022-12-13T04:23:42.529Z,97730.06
2022-12-13T04:26:09.152Z,97746.56
2022-12-13T04:28:36.013Z,97721.72
2022-12-13T04:31:02.868Z,97759.44
2022-12-13T04:33:33.171Z,97773.53
2022-12-13T04:35:59.960Z,97737.66
2022-12-13T04:38:26.757Z,97747.91
2022-12-13T04:40:53.481Z,97787.84
2022-12-13T04:43:20.057Z,97764.28
2022-12-13T04:45:46.719Z,97787.38
2022-12-13T04:48:30.415Z,97819.53
2022-12-13T04:51:00.965Z,97826.66
2022-12-13T04:53:29.453Z,97786.44
2022-12-13T04:55:56.392Z,97789.53
2022-12-13T04:58:23.322Z,97832.84
2022-12-13T05:00:50.044Z,97797.50
2022-12-13T05:03:17.966Z,97832.44
2022-12-13T05:05:44.663Z,97839.19
2022-12-13T05:08:11.555Z,97828.22
2022-12-13T05:10:38.369Z,97806.16
2022-12-13T05:13:06.043Z,97859.81
2022-12-13T05:15:33.138Z,97834.69
2022-12-13T05:18:09.841Z,97865.44
2022-12-13T05:20:39.436Z,97848.69
2022-12-13T05:23:06.223Z,97860.75
2022-12-13T05:25:33.149Z,97853.44
2022-12-13T05:27:59.764Z,97828.81
2022-12-13T05:30:26.459Z,97821.84
2022-12-13T05:32:53.131Z,97845.41
2022-12-13T05:35:23.496Z,97874.22
2022-12-13T05:37:53.950Z,97864.97
2022-12-13T05:40:25.780Z,97874.16
2022-12-13T05:43:01.215Z,97842.41
2022-12-13T05:45:30.130Z,97895.47
2022-12-13T05:47:56.917Z,97886.66
2022-12-13T05:50:24.527Z,97871.09
2022-12-13T05:52:51.498Z,97908.66
2022-12-13T05:55:18.547Z,97906.84
2022-12-13T05:57:50.772Z,97893.13
2022-12-13T06:00:30.387Z,97936.34
2022-12-13T06:03:00.848Z,97921.38
2022-12-13T06:05:28.508Z,97936.34
2022-12-13T06:07:57.525Z,97926.59
2022-12-13T06:10:24.893Z,97944.09
2022-12-13T06:13:01.580Z,97958.31
2022-12-13T06:15:34.834Z,97927.13
2022-12-13T06:18:02.011Z,97942.22
2022-12-13T06:20:28.705Z,97898.03
2022-12-13T06:22:55.375Z,97929.38
2022-12-13T06:25:31.365Z,97913.44
2022-12-13T06:28:00.781Z,97961.75
2022-12-13T06:30:32.035Z,97941.44
2022-12-13T06:33:00.033Z,97941.44
2022-12-13T06:35:29.015Z,97953.47
2022-12-13T06:38:01.124Z,97905.59
2022-12-13T06:40:30.615Z,97978.09
2022-12-13T06:42:57.866Z,97945.28
2022-12-13T06:45:25.259Z,97981.09
2022-12-13T06:47:52.026Z,97995.50
2022-12-13T06:50:18.895Z,97999.03
2022-12-13T06:52:48.447Z,97996.38
2022-12-13T06:55:23.527Z,98012.47
2022-12-13T06:57:52.313Z,98010.47
2022-12-13T07:00:22.356Z,97968.44
2022-12-13T07:02:56.972Z,97992.97
2022-12-13T07:05:25.270Z,98030.59
2022-12-13T07:07:52.202Z,98006.94
2022-12-13T07:10:22.591Z,97973.94
2022-12-13T07:12:49.970Z,98003.84
2022-12-13T07:15:16.745Z,98000.03
2022-12-13T07:17:43.944Z,97989.38
2022-12-13T07:20:11.419Z,97979.06
2022-12-13T07:22:44.924Z,98003.53
2022-12-13T07:25:27.524Z,98011.50
2022-12-13T07:28:01.711Z,98012.31
2022-12-13T07:30:31.070Z,98010.47
2022-12-13T07:32:58.292Z,98030.41
2022-12-13T07:35:25.021Z,98030.91
2022-12-13T07:37:51.670Z,98014.69
2022-12-13T07:40:18.557Z,98054.41
2022-12-13T07:42:56.570Z,98046.22
2022-12-13T07:45:24.045Z,98045.47
2022-12-13T07:47:52.014Z,98042.44
2022-12-13T07:50:24.013Z,98079.47
2022-12-13T07:52:51.981Z,98052.19
2022-12-13T07:55:18.911Z,98075.97
2022-12-13T07:57:50.073Z,98061.16
2022-12-13T08:00:17.304Z,98043.22
2022-12-13T08:02:43.968Z,98041.22
2022-12-13T08:05:27.132Z,98066.34
2022-12-13T08:07:54.261Z,98044.59
2022-12-13T08:10:21.035Z,98082.69
2022-12-13T08:12:47.702Z,98067.00
2022-12-13T08:15:14.545Z,98080.44
2022-12-13T08:17:43.259Z,98074.69
2022-12-13T08:20:10.214Z,98103.28
2022-12-13T08:22:37.037Z,98109.56
2022-12-13T08:25:04.258Z,98083.13
2022-12-13T08:27:30.954Z,98079.78
2022-12-13T08:29:57.596Z,98114.16
2022-12-13T08:32:26.130Z,98124.03
2022-12-13T08:34:52.928Z,98103.25
2022-12-13T08:37:19.595Z,98134.56
2022-12-13T08:39:46.251Z,98098.19
2022-12-13T08:42:19.000Z,98137.47
2022-12-13T08:45:06.978Z,98142.69
2022-12-13T08:47:36.885Z,98143.34
2022-12-13T08:50:08.147Z,98124.00
2022-12-13T08:52:39.300Z,98126.16
2022-12-13T08:55:08.230Z,98126.66
2022-12-13T08:57:36.882Z,98085.56
2022-12-13T09:00:05.882Z,98114.75
2022-12-13T09:02:37.744Z,98131.19
2022-12-13T09:05:07.630Z,98115.41
2022-12-13T09:07:41.105Z,98107.09
2022-12-13T09:10:25.613Z,98131.34
2022-12-13T09:13:01.400Z,98137.97
2022-12-13T09:15:34.513Z,98104.63
2022-12-13T09:18:05.090Z,98124.16
2022-12-13T09:20:32.857Z,98093.69
2022-12-13T09:23:08.482Z,98073.41
2022-12-13T09:25:41.111Z,98089.47
2022-12-13T09:28:09.312Z,98101.00
2022-12-13T09:30:38.416Z,98113.63
2022-12-13T09:33:28.357Z,98066.31
2022-12-13T09:35:52.367Z,98091.06
2022-12-13T09:38:19.083Z,98099.09
2022-12-13T09:40:49.191Z,98070.09
2022-12-13T09:43:32.051Z,98093.78
2022-12-13T09:46:13.260Z,98076.78
2022-12-13T09:48:52.021Z,98066.72
2022-12-13T09:51:28.681Z,98093.53
2022-12-13T09:53:57.897Z,98067.94
2022-12-13T09:56:24.712Z,98024.34
2022-12-13T09:58:56.799Z,98072.97
2022-12-13T10:01:24.134Z,98044.00
2022-12-13T10:03:54.577Z,98059.38
2022-12-13T10:06:24.428Z,98076.09
2022-12-13T10:08:57.901Z,98070.97
2022-12-13T10:11:31.750Z,98065.44
2022-12-13T10:14:21.461Z,98050.22
2022-12-13T10:16:55.281Z,98050.03
2022-12-13T10:19:28.169Z,98057.13
2022-12-13T10:22:01.259Z,98032.41
2022-12-13T10:25:00.491Z,98058.94
2022-12-13T10:27:36.839Z,98053.16
2022-12-13T10:30:07.077Z,98061.28
2022-12-13T10:32:56.935Z,98014.84
2022-12-13T10:35:38.629Z,98042.75
2022-12-13T10:38:08.374Z,98053.13
2022-12-13T10:40:37.782Z,98054.31
2022-12-13T10:43:11.250Z,98009.75
2022-12-13T10:45:38.362Z,98004.31
2022-12-13T10:48:06.293Z,98037.69
2022-12-13T10:50:33.319Z,98036.75
2022-12-13T10:53:00.953Z,98038.69
2022-12-13T10:55:33.962Z,98046.59
2022-12-13T10:58:10.185Z,98023.38
2022-12-13T11:00:47.664Z,98039.34
2022-12-13T11:03:30.144Z,98039.25
2022-12-13T11:06:06.976Z,98038.28
2022-12-13T11:08:34.004Z,98036.63
2022-12-13T11:11:06.964Z,98033.53
2022-12-13T11:13:47.145Z,98027.56
2022-12-13T11:16:28.014Z,98032.38
2022-12-13T11:18:58.312Z,98033.34
2022-12-13T11:21:30.127Z,98032.13
2022-12-13T11:24:01.537Z,98032.22
2022-12-13T11:26:31.204Z,98009.25
2022-12-13T11:29:16.679Z,98029.75
2022-12-13T11:32:04.447Z,98020.50
2022-12-13T11:34:39.908Z,98018.84
2022-12-13T11:37:24.863Z,98015.31
2022-12-13T11:40:14.523Z,97998.81
2022-12-13T11:43:12.208Z,97998.38
2022-12-13T11:45:51.287Z,97999.72
2022-12-13T11:48:25.679Z,97988.81
2022-12-13T11:50:56.632Z,97972.19
2022-12-13T11:53:47.408Z,97997.66
2022-12-13T11:56:24.048Z,97960.50
2022-12-13T11:59:07.109Z,97985.13
2022-12-13T12:01:43.143Z,97996.19
2022-12-13T12:04:35.520Z,98002.41
2022-12-13T12:07:31.258Z,98008.63
2022-12-13T12:09:59.001Z,97974.13
2022-12-13T12:12:37.358Z,98008.28
2022-12-13T12:15:15.178Z,97996.41
2022-12-13T12:17:44.125Z,97986.47
2022-12-13T12:20:23.884Z,97996.94
2022-12-13T12:23:04.970Z,97992.34
2022-12-13T12:26:13.585Z,98004.69
2022-12-13T12:29:11.963Z,98015.09
2022-12-13T12:32:00.148Z,98010.91
2022-12-13T12:34:38.374Z,98019.34
2022-12-13T12:37:26.038Z,97995.09
2022-12-13T12:41:07.129Z,98001.19
2022-12-13T12:43:27.243Z,98018.06
2022-12-13T12:46:12.592Z,98023.66
2022-12-13T12:49:10.869Z,98020.53
2022-12-13T12:51:53.132Z,98022.47
2022-12-13T12:54:38.735Z,98031.72
2022-12-13T12:57:30.953Z,98018.91
2022-12-13T13:00:12.442Z,98024.94
2022-12-13T13:03:18.825Z,98031.84
2022-12-13T13:06:02.922Z,98034.53
2022-12-13T13:09:05.208Z,98040.94
2022-12-13T13:11:42.780Z,98050.25
2022-12-13T13:14:32.908Z,98041.13
2022-12-13T13:17:20.564Z,98032.50
2022-12-13T13:19:49.280Z,98040.97
2022-12-13T13:22:33.808Z,98037.25
2022-12-13T13:25:06.459Z,98054.97
2022-12-13T13:27:44.676Z,98046.81
2022-12-13T13:30:27.058Z,98057.06
2022-12-13T13:33:00.221Z,98031.53
2022-12-13T13:35:33.126Z,98060.22
2022-12-13T13:38:04.759Z,98046.97
2022-12-13T13:40:34.450Z,98050.91
2022-12-13T13:43:10.316Z,98053.47
2022-12-13T13:45:52.364Z,98048.78
2022-12-13T13:48:40.885Z,98047.84
2022-12-13T13:51:54.971Z,98056.22
2022-12-13T13:55:05.162Z,98060.56
2022-12-13T13:58:12.283Z,98062.81
2022-12-13T14:00:47.993Z,98076.34
2022-12-13T14:04:05.875Z,98083.66
2022-12-13T14:06:51.318Z,98093.72
2022-12-13T14:09:23.834Z,98100.31
2022-12-13T14:12:11.190Z,98075.06
2022-12-13T14:15:08.531Z,98111.25
2022-12-13T14:18:06.888Z,98097.06
2022-12-13T14:20:45.196Z,98134.44
2022-12-13T14:23:33.870Z,98144.13
2022-12-13T14:26:18.192Z,98145.03
2022-12-13T14:28:57.004Z,98106.97
2022-12-13T14:31:28.678Z,98116.38
2022-12-13T14:33:58.060Z,98115.38
2022-12-13T14:36:32.434Z,98124.28
2022-12-13T14:39:01.555Z,98125.50
2022-12-13T14:41:28.694Z,98172.56
2022-12-13T14:43:57.918Z,98126.56
2022-12-13T14:46:24.846Z,98157.41
2022-12-13T14:48:55.041Z,98152.19
2022-12-13T14:51:38.108Z,98170.41
2022-12-13T14:54:08.003Z,98135.50
2022-12-13T14:56:35.260Z,98120.31
2022-12-13T14:59:04.890Z,98102.50
2022-12-13T15:01:36.799Z,98156.84
2022-12-13T15:04:38.271Z,98162.75
2022-12-13T15:07:20.495Z,98161.56
2022-12-13T15:09:53.014Z,98125.59
2022-12-13T15:12:25.414Z,98160.38
2022-12-13T15:15:08.521Z,98162.66
2022-12-13T15:17:38.886Z,98141.78
2022-12-13T15:20:30.818Z,98161.00
2022-12-13T15:23:07.201Z,98120.25
2022-12-13T15:25:35.792Z,98098.00
2022-12-13T15:28:04.061Z,98131.34
2022-12-13T15:30:34.909Z,98160.66
2022-12-13T15:33:08.034Z,98152.66
2022-12-13T15:35:39.104Z,98125.91
2022-12-13T15:38:28.670Z,98131.22
2022-12-13T15:40:57.120Z,98174.25
2022-12-13T15:43:35.628Z,98166.00
2022-12-13T15:46:02.769Z,98182.00
2022-12-13T15:48:35.114Z,98184.66
2022-12-13T15:51:29.619Z,98146.06
2022-12-13T15:54:02.165Z,98187.31
2022-12-13T15:56:35.574Z,98191.25
2022-12-13T15:59:04.524Z,98123.91
2022-12-13T16:01:36.758Z,98140.59
2022-12-13T16:04:05.133Z,98176.50
2022-12-13T16:06:33.634Z,98179.03
2022-12-13T16:09:04.098Z,98177.22
2022-12-13T16:11:35.129Z,98176.09
2022-12-13T16:14:35.038Z,98178.47
2022-12-13T16:17:22.794Z,98172.69
2022-12-13T16:19:49.733Z,98154.91
2022-12-13T16:22:17.754Z,98190.38
2022-12-13T16:24:44.476Z,98190.06
2022-12-13T16:27:11.254Z,98190.06
2022-12-13T16:29:38.206Z,98180.53
2022-12-13T16:32:08.342Z,98195.81
2022-12-13T16:34:36.548Z,98191.44
2022-12-13T16:37:08.792Z,98218.53
2022-12-13T16:39:50.633Z,98221.44
2022-12-13T16:42:18.879Z,98231.09
2022-12-13T16:44:47.290Z,98203.59
2022-12-13T16:47:24.337Z,98176.88
2022-12-13T16:49:56.732Z,98172.56
2022-12-13T16:52:23.478Z,98231.84
2022-12-13T16:54:51.213Z,98264.53
2022-12-13T16:57:17.838Z,98265.63
2022-12-13T16:59:44.542Z,98237.84
2022-12-13T17:02:17.896Z,98273.03
2022-12-13T17:04:44.752Z,98256.88
2022-12-13T17:07:11.412Z,98293.47
2022-12-13T17:09:38.877Z,98270.84
2022-12-13T17:12:06.007Z,98272.28
2022-12-13T17:14:32.570Z,98264.66
2022-12-13T17:16:59.421Z,98302.47
2022-12-13T17:19:26.155Z,98277.84
2022-12-13T17:21:52.748Z,98321.16
2022-12-13T17:24:19.372Z,98332.38
2022-12-13T17:26:54.629Z,98294.34
2022-12-13T17:29:22.791Z,98311.44
2022-12-13T17:31:49.420Z,98324.00
2022-12-13T17:34:16.064Z,98291.56
2022-12-13T17:36:43.718Z,98295.97
2022-12-13T17:39:12.195Z,98308.34
2022-12-13T17:41:40.346Z,98319.84
2022-12-13T17:44:07.078Z,98290.56
2022-12-13T17:46:34.910Z,98300.59
2022-12-13T17:49:01.685Z,98279.28
2022-12-13T17:51:28.886Z,98325.69
2022-12-13T17:53:55.578Z,98281.56
2022-12-13T17:56:22.273Z,98265.16
2022-12-13T17:58:48.884Z,98295.19
2022-12-13T18:01:21.547Z,98307.50
2022-12-13T18:03:49.196Z,98303.16
2022-12-13T18:06:16.267Z,98297.50
2022-12-13T18:08:44.599Z,98308.59
2022-12-13T18:13:59.870Z,98293.28
2022-12-13T18:16:35.890Z,98333.78
2022-12-13T18:19:08.773Z,98329.31
2022-12-13T18:21:36.851Z,98293.88
2022-12-13T18:24:06.365Z,98329.88
2022-12-13T18:26:33.921Z,98317.25
2022-12-13T18:29:00.796Z,98266.88
2022-12-13T18:31:28.183Z,98286.69
2022-12-13T18:33:55.101Z,98302.56
2022-12-13T18:36:23.852Z,98332.16
2022-12-13T18:38:51.511Z,98335.19
2022-12-13T18:41:21.699Z,98319.50
2022-12-13T18:43:48.862Z,98281.31
2022-12-13T18:46:16.250Z,98299.28
2022-12-13T18:48:43.276Z,98317.13
2022-12-13T18:51:10.823Z,98299.66
2022-12-13T18:53:39.173Z,98334.72
2022-12-13T18:56:18.264Z,98336.91
2022-12-13T18:58:49.896Z,98338.97
2022-12-13T19:01:17.807Z,98320.66
2022-12-13T19:03:46.570Z,98339.34
2022-12-13T19:06:28.427Z,98361.94
2022-12-13T19:08:56.741Z,98327.59
2022-12-13T19:11:26.000Z,98295.19
2022-12-13T19:13:53.029Z,98324.84
2022-12-13T19:16:22.553Z,98361.50
2022-12-13T19:18:49.333Z,98367.53
2022-12-13T19:21:19.142Z,98356.31
2022-12-13T19:23:50.030Z,98330.91
2022-12-13T19:26:22.059Z,98319.94
2022-12-13T19:28:49.025Z,98358.88
2022-12-13T19:31:16.016Z,98343.91
2022-12-13T19:33:43.065Z,98338.75
2022-12-13T19:36:10.804Z,98343.06
2022-12-13T19:38:38.987Z,98334.44
2022-12-13T19:41:10.462Z,98370.84
2022-12-13T19:43:37.401Z,98327.78
2022-12-13T19:46:06.757Z,98327.53
2022-12-13T19:48:34.381Z,98378.25
2022-12-13T19:51:02.481Z,98372.06
2022-12-13T19:53:30.729Z,98366.53
2022-12-13T19:55:57.913Z,98359.28
2022-12-13T19:58:26.272Z,98356.50
2022-12-13T20:00:53.979Z,98363.50
2022-12-13T20:03:20.703Z,98338.06
2022-12-13T20:05:59.955Z,98359.91
2022-12-13T20:08:26.690Z,98350.00
2022-12-13T20:10:58.196Z,98340.13
2022-12-13T20:13:25.550Z,98343.00
2022-12-13T20:15:52.640Z,98361.97
2022-12-13T20:18:19.581Z,98343.59
2022-12-13T20:21:10.692Z,98373.78
2022-12-13T20:23:34.566Z,98321.31
2022-12-13T20:26:06.481Z,98355.56
2022-12-13T20:28:33.129Z,98315.31
2022-12-13T20:31:10.289Z,98356.66
2022-12-13T20:33:38.460Z,98357.63
2022-12-13T20:36:24.129Z,98353.63
2022-12-13T20:38:52.993Z,98307.34
2022-12-13T20:41:19.628Z,98312.41
2022-12-13T20:43:48.442Z,98306.75
2022-12-13T20:46:16.247Z,98349.31
2022-12-13T20:48:45.847Z,98353.53
2022-12-13T20:51:16.098Z,98331.69
2022-12-13T20:53:45.598Z,98306.28
2022-12-13T20:56:15.322Z,98348.00
2022-12-13T20:58:43.128Z,98366.69
2022-12-13T21:01:15.721Z,98376.09
2022-12-13T21:03:44.603Z,98368.38
2022-12-13T21:06:11.998Z,98350.66
2022-12-13T21:09:02.693Z,98324.25
2022-12-13T21:11:38.656Z,98368.38
2022-12-13T21:14:26.577Z,98368.38
2022-12-13T21:16:57.238Z,98363.56
2022-12-13T21:19:33.128Z,98360.69
2022-12-13T21:22:02.779Z,98341.84
2022-12-13T21:24:29.553Z,98365.84
2022-12-13T21:26:56.737Z,98363.56
2022-12-13T21:29:23.527Z,98359.94
2022-12-13T21:31:50.535Z,98372.72
2022-12-13T21:34:18.805Z,98360.44
2022-12-13T21:36:47.716Z,98321.81
2022-12-13T21:39:17.441Z,98324.25
2022-12-13T21:41:45.035Z,98359.22
2022-12-13T21:44:13.657Z,98355.13
2022-12-13T21:49:29.029Z,98356.56
2022-12-13T21:51:55.933Z,98295.63
2022-12-13T21:54:23.072Z,98312.16
2022-12-13T21:57:09.374Z,98339.81
2022-12-13T21:59:36.078Z,98294.34
2022-12-13T22:02:20.524Z,98292.03
2022-12-13T22:04:55.683Z,98350.53
2022-12-13T22:07:32.897Z,98348.00
2022-12-13T22:10:00.999Z,98349.09
2022-12-13T22:12:36.420Z,98349.09
2022-12-13T22:15:05.590Z,98321.56
2022-12-13T22:17:35.688Z,98327.72
2022-12-13T22:20:08.559Z,98337.97
2022-12-13T22:22:35.235Z,98299.75
2022-12-13T22:25:01.833Z,98320.25
2022-12-13T22:27:28.590Z,98341.47
2022-12-13T22:29:57.627Z,98322.91
2022-12-13T22:32:26.401Z,98321.09
2022-12-13T22:34:53.379Z,98324.97
2022-12-13T22:37:20.389Z,98311.44
2022-12-13T22:39:47.057Z,98253.09
2022-12-13T22:42:13.787Z,98245.84
2022-12-13T22:44:40.536Z,98280.56
2022-12-13T22:47:07.133Z,98289.25
2022-12-13T22:49:33.759Z,98266.47
2022-12-13T22:52:00.447Z,98316.53
2022-12-13T22:54:27.174Z,98296.63
2022-12-13T22:56:54.118Z,98331.47
2022-12-13T22:59:22.323Z,98280.94
2022-12-13T23:01:48.965Z,98329.31
2022-12-13T23:04:15.630Z,98299.38
2022-12-13T23:06:42.424Z,98326.16
2022-12-13T23:09:13.667Z,98308.91
2022-12-13T23:11:59.255Z,98345.34
2022-12-13T23:14:33.198Z,98347.38
2022-12-13T23:17:01.072Z,98289.00
2022-12-13T23:19:49.744Z,98340.34
2022-12-13T23:22:16.968Z,98335.56
2022-12-13T23:24:43.818Z,98324.44
2022-12-13T23:27:10.525Z,98311.78
2022-12-13T23:29:37.237Z,98331.56
2022-12-13T23:32:04.453Z,98320.34
2022-12-13T23:34:31.444Z,98326.25
2022-12-13T23:36:58.041Z,98304.78
2022-12-13T23:39:24.623Z,98310.66
2022-12-13T23:41:51.263Z,98335.50
2022-12-13T23:44:18.096Z,98342.84
2022-12-13T23:46:48.120Z,98349.72
2022-12-13T23:49:15.633Z,98362.84
2022-12-13T23:51:42.763Z,98336.31
2022-12-13T23:54:14.651Z,98329.03
2022-12-13T23:56:41.413Z,98322.41
2022-12-13T23:59:08.044Z,98344.31
